createdAt,value
2022-09-12T00:00:16.670Z,15.09
2022-09-12T00:01:19.696Z,15.97
2022-09-12T00:02:16.552Z,15.80
2022-09-12T00:03:13.341Z,15.72
2022-09-12T00:04:11.134Z,15.78
2022-09-12T00:05:08.619Z,15.43
2022-09-12T00:06:23.188Z,15.77
2022-09-12T00:07:20.234Z,15.74
2022-09-12T00:08:16.961Z,15.66
2022-09-12T00:09:15.223Z,15.45
2022-09-12T00:10:11.994Z,15.48
2022-09-12T00:11:10.857Z,15.61
2022-09-12T00:12:08.304Z,15.53
2022-09-12T00:13:04.985Z,15.77
2022-09-12T00:14:02.738Z,15.58
2022-09-12T00:14:59.427Z,15.35
2022-09-12T00:15:56.154Z,15.84
2022-09-12T00:16:52.889Z,15.84
2022-09-12T00:17:49.625Z,15.94
2022-09-12T00:18:47.246Z,15.69
2022-09-12T00:19:44.038Z,15.33
2022-09-12T00:20:46.168Z,15.66
2022-09-12T00:21:42.933Z,15.76
2022-09-12T00:22:39.632Z,15.80
2022-09-12T00:23:36.312Z,15.75
2022-09-12T00:24:34.141Z,15.91
2022-09-12T00:25:31.268Z,15.37
2022-09-12T00:26:28.123Z,15.15
2022-09-12T00:27:24.837Z,15.96
2022-09-12T00:28:21.649Z,15.51
2022-09-12T00:29:20.548Z,15.37
2022-09-12T00:30:17.286Z,15.61
2022-09-12T00:31:20.692Z,15.54
2022-09-12T00:32:17.431Z,15.14
2022-09-12T00:33:16.854Z,14.86
2022-09-12T00:34:13.789Z,15.51
2022-09-12T00:35:10.519Z,15.87
2022-09-12T00:36:10.941Z,15.44
2022-09-12T00:37:07.611Z,15.67
2022-09-12T00:38:04.294Z,15.55
2022-09-12T00:39:01.294Z,15.74
2022-09-12T00:39:58.014Z,15.66
2022-09-12T00:40:54.738Z,15.50
2022-09-12T00:41:51.646Z,15.20
2022-09-12T00:42:48.315Z,15.63
2022-09-12T00:43:53.975Z,15.61
2022-09-12T00:44:52.538Z,15.60
2022-09-12T00:45:49.378Z,15.71
2022-09-12T00:46:50.747Z,15.66
2022-09-12T00:47:47.792Z,15.79
2022-09-12T00:48:55.160Z,15.90
2022-09-12T00:50:01.716Z,15.63
2022-09-12T00:50:58.883Z,15.45
2022-09-12T00:52:03.220Z,15.39
2022-09-12T00:53:06.971Z,15.46
2022-09-12T00:54:10.528Z,15.37
2022-09-12T00:55:21.119Z,15.66
2022-09-12T00:56:20.417Z,15.27
2022-09-12T00:57:21.029Z,14.95
2022-09-12T00:58:29.768Z,14.95
2022-09-12T00:59:35.198Z,15.00
2022-09-12T01:00:32.615Z,14.50
2022-09-12T01:01:32.593Z,14.60
2022-09-12T01:02:30.094Z,15.46
2022-09-12T01:03:27.098Z,15.45
2022-09-12T01:04:28.053Z,15.36
2022-09-12T01:05:28.440Z,15.62
2022-09-12T01:06:30.217Z,15.65
2022-09-12T01:07:26.994Z,15.28
2022-09-12T01:08:25.903Z,15.30
2022-09-12T01:09:24.518Z,15.20
2022-09-12T01:10:21.555Z,15.48
2022-09-12T01:11:20.921Z,15.46
2022-09-12T01:12:17.886Z,15.53
2022-09-12T01:13:14.913Z,14.99
2022-09-12T01:14:13.845Z,15.39
2022-09-12T01:15:11.163Z,15.39
2022-09-12T01:16:08.534Z,15.27
2022-09-12T01:17:05.273Z,15.22
2022-09-12T01:18:17.935Z,15.25
2022-09-12T01:19:35.254Z,15.57
2022-09-12T01:20:53.663Z,15.33
2022-09-12T01:22:27.450Z,15.16
2022-09-12T01:23:33.134Z,15.16
2022-09-12T01:24:32.776Z,15.27
2022-09-12T01:25:52.406Z,15.03
2022-09-12T01:27:23.186Z,15.09
2022-09-12T01:28:42.834Z,15.32
2022-09-12T01:30:07.139Z,15.41
2022-09-12T01:31:11.763Z,15.31
2022-09-12T01:32:14.580Z,15.23
2022-09-12T01:33:20.232Z,15.07
2022-09-12T01:34:39.770Z,15.00
2022-09-12T01:36:17.176Z,14.81
2022-09-12T01:37:48.927Z,14.64
2022-09-12T01:38:48.184Z,15.22
2022-09-12T01:40:00.594Z,15.27
2022-09-12T01:41:18.064Z,15.36
2022-09-12T01:42:20.530Z,15.41
2022-09-12T01:43:39.730Z,15.16
2022-09-12T01:44:39.062Z,15.13
2022-09-12T01:45:46.236Z,15.32
2022-09-12T01:46:49.839Z,15.36
2022-09-12T01:48:13.101Z,15.35
2022-09-12T01:49:17.965Z,15.42
2022-09-12T01:50:38.069Z,14.72
2022-09-12T01:52:09.533Z,15.08
2022-09-12T01:53:21.895Z,15.03
2022-09-12T01:54:27.334Z,15.17
2022-09-12T01:55:35.044Z,15.12
2022-09-12T01:56:36.697Z,14.84
2022-09-12T01:57:57.954Z,14.22
2022-09-12T01:59:16.985Z,15.08
2022-09-12T02:00:14.271Z,15.28
2022-09-12T02:01:22.454Z,15.31
2022-09-12T02:02:24.660Z,14.86
2022-09-12T02:03:31.011Z,14.76
2022-09-12T02:04:39.292Z,14.60
2022-09-12T02:05:45.137Z,14.89
2022-09-12T02:06:49.930Z,14.84
2022-09-12T02:08:00.893Z,15.13
2022-09-12T02:09:15.300Z,15.06
2022-09-12T02:10:23.868Z,14.75
2022-09-12T02:11:22.017Z,14.84
2022-09-12T02:12:27.851Z,15.00
2022-09-12T02:13:42.558Z,14.91
2022-09-12T02:14:49.175Z,14.73
2022-09-12T02:16:05.657Z,14.86
2022-09-12T02:17:07.950Z,14.94
2022-09-12T02:18:06.726Z,15.05
2022-09-12T02:19:12.773Z,14.95
2022-09-12T02:20:37.403Z,15.10
2022-09-12T02:21:42.195Z,14.93
2022-09-12T02:22:42.629Z,15.03
2022-09-12T02:23:46.222Z,14.33
2022-09-12T02:24:47.803Z,14.27
2022-09-12T02:25:49.458Z,14.62
2022-09-12T02:27:06.155Z,14.72
2022-09-12T02:28:11.082Z,14.68
2022-09-12T02:29:07.919Z,14.94
2022-09-12T02:30:09.134Z,15.01
2022-09-12T02:31:25.386Z,15.06
2022-09-12T02:32:38.226Z,15.03
2022-09-12T02:33:49.910Z,14.69
2022-09-12T02:35:07.325Z,14.92
2022-09-12T02:36:13.579Z,14.82
2022-09-12T02:37:32.035Z,14.82
2022-09-12T02:38:44.725Z,14.73
2022-09-12T02:39:45.193Z,14.40
2022-09-12T02:40:42.293Z,14.51
2022-09-12T02:41:39.113Z,14.61
2022-09-12T02:42:37.270Z,14.53
2022-09-12T02:43:34.131Z,14.75
2022-09-12T02:44:33.730Z,14.55
2022-09-12T02:45:34.326Z,14.08
2022-09-12T02:46:42.690Z,12.87
2022-09-12T02:47:39.374Z,14.74
2022-09-12T02:48:43.408Z,14.58
2022-09-12T02:49:40.213Z,14.75
2022-09-12T02:50:37.694Z,14.21
2022-09-12T02:51:34.697Z,14.47
2022-09-12T02:52:32.299Z,14.64
2022-09-12T02:53:29.113Z,14.48
2022-09-12T02:54:26.163Z,14.61
2022-09-12T02:55:24.727Z,14.54
2022-09-12T02:56:29.514Z,14.63
2022-09-12T02:57:26.840Z,14.42
2022-09-12T02:58:29.714Z,14.75
2022-09-12T02:59:27.289Z,14.73
2022-09-12T03:00:25.801Z,14.71
2022-09-12T03:01:40.669Z,14.69
2022-09-12T03:02:56.235Z,14.69
2022-09-12T03:04:07.556Z,14.66
2022-09-12T03:05:18.909Z,14.42
2022-09-12T03:06:26.992Z,14.39
2022-09-12T03:07:32.877Z,14.30
2022-09-12T03:08:44.342Z,14.25
2022-09-12T03:09:46.890Z,14.45
2022-09-12T03:10:49.528Z,14.41
2022-09-12T03:11:55.289Z,14.34
2022-09-12T03:12:59.429Z,14.28
2022-09-12T03:14:11.254Z,14.39
2022-09-12T03:15:40.170Z,14.48
2022-09-12T03:16:46.674Z,14.27
2022-09-12T03:18:03.141Z,14.48
2022-09-12T03:19:25.624Z,14.67
2022-09-12T03:20:34.235Z,14.53
2022-09-12T03:21:51.133Z,14.48
2022-09-12T03:23:05.822Z,13.47
2022-09-12T03:24:05.330Z,14.62
2022-09-12T03:25:28.342Z,14.39
2022-09-12T03:26:47.592Z,14.41
2022-09-12T03:28:00.274Z,14.37
2022-09-12T03:28:59.236Z,14.25
2022-09-12T03:29:57.631Z,13.54
2022-09-12T03:30:56.505Z,14.23
2022-09-12T03:31:58.886Z,13.85
2022-09-12T03:32:55.657Z,14.13
2022-09-12T03:33:52.333Z,14.06
2022-09-12T03:34:49.121Z,14.39
2022-09-12T03:35:48.319Z,14.39
2022-09-12T03:36:45.018Z,14.48
2022-09-12T03:37:41.996Z,14.49
2022-09-12T03:38:39.229Z,14.49
2022-09-12T03:39:36.016Z,14.12
2022-09-12T03:40:32.739Z,14.29
2022-09-12T03:41:29.415Z,13.57
2022-09-12T03:42:26.104Z,14.16
2022-09-12T03:43:22.806Z,14.18
2022-09-12T03:44:19.813Z,14.49
2022-09-12T03:45:16.712Z,14.31
2022-09-12T03:46:13.893Z,14.26
2022-09-12T03:47:11.364Z,14.38
2022-09-12T03:48:08.581Z,14.30
2022-09-12T03:49:06.041Z,14.16
2022-09-12T03:50:04.251Z,14.07
2022-09-12T03:51:06.703Z,14.21
2022-09-12T03:52:05.039Z,14.28
2022-09-12T03:53:02.920Z,14.30
2022-09-12T03:53:59.655Z,14.12
2022-09-12T03:54:56.365Z,14.35
2022-09-12T03:55:53.076Z,14.48
2022-09-12T03:56:49.740Z,14.41
2022-09-12T03:57:46.442Z,14.16
2022-09-12T03:58:43.167Z,14.31
2022-09-12T03:59:40.196Z,14.31
2022-09-12T04:00:38.818Z,14.46
2022-09-12T04:01:35.763Z,13.77
2022-09-12T04:02:32.571Z,13.60
2022-09-12T04:03:29.290Z,14.09
2022-09-12T04:04:26.083Z,14.20
2022-09-12T04:05:24.224Z,14.04
2022-09-12T04:06:22.958Z,14.28
2022-09-12T04:07:20.304Z,13.91
2022-09-12T04:08:17.018Z,14.19
2022-09-12T04:09:13.813Z,14.14
2022-09-12T04:10:10.626Z,14.33
2022-09-12T04:11:13.037Z,14.30
2022-09-12T04:12:09.735Z,13.82
2022-09-12T04:13:06.626Z,14.16
2022-09-12T04:14:03.328Z,14.39
2022-09-12T04:15:00.038Z,14.71
2022-09-12T04:15:58.382Z,13.77
2022-09-12T04:16:55.199Z,14.41
2022-09-12T04:17:51.963Z,14.31
2022-09-12T04:18:48.911Z,14.06
2022-09-12T04:19:45.673Z,14.43
2022-09-12T04:20:42.695Z,14.33
2022-09-12T04:21:40.069Z,14.33
2022-09-12T04:22:36.817Z,14.54
2022-09-12T04:23:34.602Z,14.29
2022-09-12T04:24:31.394Z,14.44
2022-09-12T04:25:28.447Z,14.61
2022-09-12T04:26:25.170Z,14.41
2022-09-12T04:27:21.859Z,14.45
2022-09-12T04:28:18.539Z,14.62
2022-09-12T04:29:15.745Z,14.40
2022-09-12T04:30:12.933Z,14.58
2022-09-12T04:31:15.559Z,14.22
2022-09-12T04:32:12.336Z,14.55
2022-09-12T04:33:09.005Z,14.44
2022-09-12T04:34:05.715Z,14.76
2022-09-12T04:35:02.387Z,14.68
2022-09-12T04:36:04.702Z,14.82
2022-09-12T04:37:01.430Z,14.99
2022-09-12T04:37:58.226Z,15.07
2022-09-12T04:38:55.875Z,14.88
2022-09-12T04:39:57.730Z,14.00
2022-09-12T04:40:54.736Z,15.11
2022-09-12T04:41:51.958Z,14.73
2022-09-12T04:42:48.717Z,14.91
2022-09-12T04:43:46.598Z,13.64
2022-09-12T04:44:43.972Z,14.83
2022-09-12T04:45:40.681Z,14.76
2022-09-12T04:46:40.277Z,15.27
2022-09-12T04:47:36.982Z,15.20
2022-09-12T04:48:33.764Z,15.31
2022-09-12T04:49:30.494Z,15.21
2022-09-12T04:50:27.312Z,15.09
2022-09-12T04:51:33.799Z,15.32
2022-09-12T04:52:30.876Z,15.58
2022-09-12T04:53:27.544Z,15.54
2022-09-12T04:54:24.764Z,15.16
2022-09-12T04:55:22.174Z,14.53
2022-09-12T04:56:20.300Z,15.04
2022-09-12T04:57:16.971Z,14.13
2022-09-12T04:58:13.652Z,15.16
2022-09-12T04:59:11.867Z,15.18
2022-09-12T05:00:09.293Z,15.17
2022-09-12T05:01:10.163Z,15.10
2022-09-12T05:02:07.116Z,15.09
2022-09-12T05:03:03.862Z,15.23
2022-09-12T05:04:00.750Z,15.08
2022-09-12T05:04:57.655Z,15.58
2022-09-12T05:05:56.433Z,15.00
2022-09-12T05:06:53.335Z,15.22
2022-09-12T05:07:50.001Z,15.29
2022-09-12T05:08:47.840Z,15.39
2022-09-12T05:10:04.746Z,15.58
2022-09-12T05:11:11.358Z,15.47
2022-09-12T05:12:08.316Z,15.40
2022-09-12T05:13:05.008Z,15.39
2022-09-12T05:14:02.304Z,15.36
2022-09-12T05:14:59.018Z,15.49
2022-09-12T05:15:58.117Z,15.49
2022-09-12T05:16:59.713Z,15.47
2022-09-12T05:17:56.679Z,15.73
2022-09-12T05:18:53.380Z,15.82
2022-09-12T05:19:50.073Z,15.70
2022-09-12T05:20:47.062Z,15.80
2022-09-12T05:21:43.746Z,15.59
2022-09-12T05:22:40.695Z,15.15
2022-09-12T05:23:37.326Z,14.82
2022-09-12T05:24:35.154Z,15.41
2022-09-12T05:25:32.054Z,15.81
2022-09-12T05:26:28.993Z,15.80
2022-09-12T05:27:25.703Z,15.91
2022-09-12T05:28:23.902Z,15.74
2022-09-12T05:29:20.622Z,16.13
2022-09-12T05:30:17.454Z,16.09
2022-09-12T05:31:17.316Z,16.12
2022-09-12T05:32:14.037Z,16.07
2022-09-12T05:33:11.325Z,16.39
2022-09-12T05:34:09.135Z,15.60
2022-09-12T05:35:06.003Z,16.28
2022-09-12T05:36:04.871Z,16.30
2022-09-12T05:37:01.589Z,16.45
2022-09-12T05:37:58.283Z,16.05
2022-09-12T05:38:56.353Z,16.20
2022-09-12T05:39:53.083Z,16.45
2022-09-12T05:40:49.793Z,16.54
2022-09-12T05:41:47.342Z,16.58
2022-09-12T05:42:44.049Z,16.50
2022-09-12T05:43:42.457Z,16.41
2022-09-12T05:44:39.259Z,16.78
2022-09-12T05:45:35.964Z,16.53
2022-09-12T05:46:38.234Z,16.73
2022-09-12T05:47:34.922Z,16.76
2022-09-12T05:48:32.708Z,16.70
2022-09-12T05:49:30.308Z,15.98
2022-09-12T05:50:26.980Z,16.90
2022-09-12T05:51:35.082Z,16.41
2022-09-12T05:52:32.749Z,16.57
2022-09-12T05:53:31.103Z,16.48
2022-09-12T05:54:31.329Z,16.95
2022-09-12T05:55:29.993Z,16.92
2022-09-12T05:56:33.237Z,17.11
2022-09-12T05:57:30.104Z,17.09
2022-09-12T05:58:26.860Z,17.08
2022-09-12T05:59:24.097Z,16.86
2022-09-12T06:00:21.323Z,17.02
2022-09-12T06:01:19.582Z,17.11
2022-09-12T06:02:16.317Z,17.19
2022-09-12T06:03:13.002Z,17.26
2022-09-12T06:04:10.583Z,17.06
2022-09-12T06:05:07.551Z,16.86
2022-09-12T06:06:06.482Z,16.69
2022-09-12T06:07:03.291Z,15.73
2022-09-12T06:07:59.995Z,15.83
2022-09-12T06:08:59.849Z,15.56
2022-09-12T06:09:56.584Z,16.14
2022-09-12T06:11:02.286Z,16.21
2022-09-12T06:11:59.169Z,16.40
2022-09-12T06:12:55.885Z,16.17
2022-09-12T06:13:52.971Z,16.42
2022-09-12T06:14:50.322Z,16.36
2022-09-12T06:15:47.010Z,16.17
2022-09-12T06:16:44.059Z,16.33
2022-09-12T06:17:40.773Z,16.75
2022-09-12T06:18:39.275Z,16.90
2022-09-12T06:19:35.991Z,17.03
2022-09-12T06:20:32.696Z,17.05
2022-09-12T06:21:34.487Z,16.50
2022-09-12T06:22:31.675Z,17.39
2022-09-12T06:23:28.369Z,17.20
2022-09-12T06:24:25.055Z,17.06
2022-09-12T06:25:22.241Z,17.07
2022-09-12T06:26:21.752Z,16.84
2022-09-12T06:27:18.777Z,17.20
2022-09-12T06:28:16.235Z,16.84
2022-09-12T06:29:13.773Z,17.10
2022-09-12T06:30:11.108Z,16.81
2022-09-12T06:31:07.801Z,17.26
2022-09-12T06:32:04.711Z,17.26
2022-09-12T06:33:01.386Z,16.83
2022-09-12T06:34:01.705Z,17.49
2022-09-12T06:34:58.753Z,16.64
2022-09-12T06:35:55.520Z,16.92
2022-09-12T06:36:52.203Z,17.42
2022-09-12T06:37:49.055Z,17.13
2022-09-12T06:38:46.384Z,17.29
2022-09-12T06:39:43.432Z,17.53
2022-09-12T06:40:44.640Z,17.54
2022-09-12T06:41:44.089Z,16.95
2022-09-12T06:42:41.003Z,17.32
2022-09-12T06:43:38.925Z,17.17
2022-09-12T06:44:35.624Z,17.05
2022-09-12T06:45:32.661Z,17.27
2022-09-12T06:46:31.153Z,16.95
2022-09-12T06:47:28.219Z,17.20
2022-09-12T06:48:25.024Z,17.21
2022-09-12T06:49:21.695Z,17.32
2022-09-12T06:50:18.449Z,17.48
2022-09-12T06:51:18.045Z,17.27
2022-09-12T06:52:14.824Z,17.55
2022-09-12T06:53:11.532Z,17.30
2022-09-12T06:54:09.004Z,17.42
2022-09-12T06:55:06.168Z,17.52
2022-09-12T06:56:09.364Z,17.36
2022-09-12T06:57:06.058Z,17.55
2022-09-12T06:58:02.751Z,17.37
2022-09-12T06:58:59.670Z,17.06
2022-09-12T06:59:56.385Z,17.66
2022-09-12T07:01:01.988Z,17.87
2022-09-12T07:01:58.760Z,17.69
2022-09-12T07:02:56.648Z,17.71
2022-09-12T07:03:55.880Z,17.91
2022-09-12T07:04:52.885Z,17.63
2022-09-12T07:05:49.572Z,18.09
2022-09-12T07:06:46.293Z,17.90
2022-09-12T07:07:43.053Z,18.14
2022-09-12T07:08:41.027Z,17.82
2022-09-12T07:09:37.812Z,16.69
2022-09-12T07:10:34.776Z,17.89
2022-09-12T07:11:34.710Z,17.77
2022-09-12T07:12:31.373Z,17.93
2022-09-12T07:13:28.086Z,17.78
2022-09-12T07:14:26.098Z,18.07
2022-09-12T07:15:22.775Z,18.40
2022-09-12T07:16:20.343Z,18.12
2022-09-12T07:17:17.131Z,18.44
2022-09-12T07:18:14.100Z,18.60
2022-09-12T07:19:10.943Z,18.58
2022-09-12T07:20:08.208Z,18.33
2022-09-12T07:21:07.648Z,18.20
2022-09-12T07:22:04.465Z,17.89
2022-09-12T07:23:01.190Z,17.82
2022-09-12T07:23:58.646Z,18.21
2022-09-12T07:24:57.650Z,17.10
2022-09-12T07:25:57.087Z,17.69
2022-09-12T07:26:53.793Z,18.48
2022-09-12T07:27:52.773Z,18.42
2022-09-12T07:28:54.699Z,18.30
2022-09-12T07:29:51.427Z,18.60
2022-09-12T07:30:48.115Z,18.64
2022-09-12T07:31:45.686Z,18.75
2022-09-12T07:32:42.377Z,18.05
2022-09-12T07:33:40.658Z,18.42
2022-09-12T07:34:37.422Z,18.24
2022-09-12T07:35:34.183Z,18.30
2022-09-12T07:36:30.882Z,18.60
2022-09-12T07:37:31.588Z,18.16
2022-09-12T07:38:28.536Z,18.39
2022-09-12T07:39:25.662Z,18.32
2022-09-12T07:40:22.984Z,18.71
2022-09-12T07:41:23.599Z,18.68
2022-09-12T07:42:20.278Z,17.54
2022-09-12T07:43:17.003Z,18.57
2022-09-12T07:44:13.874Z,18.80
2022-09-12T07:45:11.253Z,18.55
2022-09-12T07:46:08.374Z,18.86
2022-09-12T07:47:05.205Z,18.78
2022-09-12T07:48:02.276Z,18.65
2022-09-12T07:49:01.522Z,18.63
2022-09-12T07:49:58.993Z,18.81
2022-09-12T07:51:01.601Z,17.85
2022-09-12T07:51:58.285Z,18.29
2022-09-12T07:52:55.334Z,18.53
2022-09-12T07:53:52.137Z,18.68
2022-09-12T07:54:48.839Z,18.89
2022-09-12T07:55:53.493Z,18.86
2022-09-12T07:56:50.204Z,19.06
2022-09-12T07:57:50.782Z,19.09
2022-09-12T07:58:47.963Z,18.97
2022-09-12T07:59:53.166Z,19.02
2022-09-12T08:00:50.918Z,18.77
2022-09-12T08:01:47.724Z,18.55
2022-09-12T08:02:44.959Z,19.25
2022-09-12T08:03:44.068Z,19.13
2022-09-12T08:04:42.169Z,18.68
2022-09-12T08:05:38.897Z,18.41
2022-09-12T08:06:36.438Z,18.49
2022-09-12T08:07:34.174Z,17.57
2022-09-12T08:08:31.141Z,18.61
2022-09-12T08:09:27.812Z,18.92
2022-09-12T08:10:24.680Z,18.97
2022-09-12T08:11:23.111Z,18.96
2022-09-12T08:12:20.471Z,19.37
2022-09-12T08:13:17.182Z,19.47
2022-09-12T08:14:13.958Z,19.17
2022-09-12T08:15:10.942Z,18.85
2022-09-12T08:16:15.525Z,19.20
2022-09-12T08:17:12.307Z,19.06
2022-09-12T08:18:09.034Z,18.91
2022-09-12T08:19:05.737Z,18.91
2022-09-12T08:20:02.963Z,19.04
2022-09-12T08:21:06.161Z,18.71
2022-09-12T08:22:02.987Z,18.31
2022-09-12T08:22:59.694Z,18.44
2022-09-12T08:24:00.827Z,18.67
2022-09-12T08:24:57.594Z,19.09
2022-09-12T08:26:06.290Z,18.94
2022-09-12T08:27:03.189Z,18.69
2022-09-12T08:28:01.393Z,18.94
2022-09-12T08:28:58.612Z,18.94
2022-09-12T08:29:55.556Z,18.85
2022-09-12T08:30:53.699Z,18.90
2022-09-12T08:31:52.912Z,18.26
2022-09-12T08:32:53.265Z,18.53
2022-09-12T08:33:50.825Z,18.43
2022-09-12T08:34:47.527Z,18.34
2022-09-12T08:35:44.317Z,18.73
2022-09-12T08:36:41.071Z,19.08
2022-09-12T08:37:37.739Z,19.25
2022-09-12T08:38:36.628Z,19.15
2022-09-12T08:39:33.344Z,19.15
2022-09-12T08:40:30.334Z,17.71
2022-09-12T08:41:40.771Z,18.80
2022-09-12T08:42:49.726Z,19.17
2022-09-12T08:44:01.349Z,19.06
2022-09-12T08:45:16.713Z,18.88
2022-09-12T08:46:28.951Z,19.23
2022-09-12T08:47:38.142Z,19.30
2022-09-12T08:48:35.842Z,19.49
2022-09-12T08:49:34.598Z,19.40
2022-09-12T08:50:32.541Z,19.67
2022-09-12T08:51:34.499Z,19.20
2022-09-12T08:53:03.362Z,19.73
2022-09-12T08:54:04.603Z,19.31
2022-09-12T08:55:04.526Z,19.26
2022-09-12T08:56:05.810Z,19.40
2022-09-12T08:57:05.727Z,19.28
2022-09-12T08:58:22.806Z,19.09
2022-09-12T08:59:19.567Z,18.71
2022-09-12T09:00:18.741Z,19.12
2022-09-12T09:01:32.703Z,19.06
2022-09-12T09:03:08.973Z,19.34
2022-09-12T09:04:21.642Z,19.49
2022-09-12T09:05:24.361Z,19.55
2022-09-12T09:06:32.786Z,19.63
2022-09-12T09:07:56.335Z,19.47
2022-09-12T09:09:12.009Z,19.21
2022-09-12T09:10:39.834Z,19.24
2022-09-12T09:12:12.540Z,19.28
2022-09-12T09:13:45.364Z,19.14
2022-09-12T09:14:50.822Z,18.57
2022-09-12T09:16:12.852Z,18.96
2022-09-12T09:17:31.963Z,19.12
2022-09-12T09:18:35.191Z,18.86
2022-09-12T09:19:40.887Z,18.97
2022-09-12T09:21:03.449Z,19.13
2022-09-12T09:22:09.942Z,19.00
2022-09-12T09:23:11.118Z,19.14
2022-09-12T09:24:16.800Z,19.00
2022-09-12T09:25:25.208Z,19.18
2022-09-12T09:26:32.627Z,18.85
2022-09-12T09:27:44.046Z,19.14
2022-09-12T09:28:46.454Z,19.01
2022-09-12T09:29:53.296Z,19.02
2022-09-12T09:30:50.972Z,18.90
2022-09-12T09:31:51.996Z,18.16
2022-09-12T09:32:57.073Z,18.99
2022-09-12T09:33:57.606Z,19.23
2022-09-12T09:34:54.661Z,19.07
2022-09-12T09:36:14.082Z,19.33
2022-09-12T09:37:20.878Z,19.35
2022-09-12T09:38:26.866Z,19.28
2022-09-12T09:39:40.101Z,19.45
2022-09-12T09:40:51.403Z,19.36
2022-09-12T09:42:25.473Z,19.35
2022-09-12T09:43:28.927Z,19.36
2022-09-12T09:44:29.220Z,18.61
2022-09-12T09:45:29.198Z,19.48
2022-09-12T09:46:28.076Z,19.31
2022-09-12T09:47:25.003Z,19.46
2022-09-12T09:48:27.657Z,19.62
2022-09-12T09:49:32.081Z,19.53
2022-09-12T09:50:29.145Z,19.69
2022-09-12T09:51:32.875Z,19.50
2022-09-12T09:52:32.942Z,19.61
2022-09-12T09:53:42.408Z,19.92
2022-09-12T09:55:02.985Z,20.13
2022-09-12T09:56:05.512Z,20.02
2022-09-12T09:57:05.120Z,19.74
2022-09-12T09:58:01.836Z,19.59
2022-09-12T09:59:15.046Z,19.60
2022-09-12T10:00:27.315Z,19.77
2022-09-12T10:01:27.493Z,19.70
2022-09-12T10:02:24.766Z,20.05
2022-09-12T10:03:30.328Z,19.93
2022-09-12T10:04:31.568Z,19.70
2022-09-12T10:05:28.939Z,19.66
2022-09-12T10:06:32.830Z,19.75
2022-09-12T10:07:29.618Z,19.95
2022-09-12T10:08:33.058Z,20.27
2022-09-12T10:09:35.839Z,20.19
2022-09-12T10:10:32.585Z,20.41
2022-09-12T10:11:29.321Z,20.51
2022-09-12T10:12:28.880Z,20.20
2022-09-12T10:13:39.803Z,20.17
2022-09-12T10:14:40.862Z,20.30
2022-09-12T10:15:38.409Z,20.15
2022-09-12T10:16:52.365Z,19.93
2022-09-12T10:17:50.809Z,20.15
2022-09-12T10:18:51.035Z,20.15
2022-09-12T10:20:04.476Z,20.11
2022-09-12T10:21:41.424Z,20.12
2022-09-12T10:22:38.695Z,19.97
2022-09-12T10:23:40.341Z,19.81
2022-09-12T10:24:42.224Z,19.77
2022-09-12T10:25:39.041Z,19.47
2022-09-12T10:26:40.528Z,20.02
2022-09-12T10:28:00.191Z,20.13
2022-09-12T10:28:57.025Z,20.13
2022-09-12T10:30:01.470Z,20.10
2022-09-12T10:31:02.907Z,20.35
2022-09-12T10:32:04.927Z,20.47
2022-09-12T10:33:12.202Z,20.34
2022-09-12T10:34:32.336Z,20.54
2022-09-12T10:35:42.555Z,20.40
2022-09-12T10:36:40.834Z,19.95
2022-09-12T10:37:39.945Z,20.07
2022-09-12T10:38:37.006Z,19.96
2022-09-12T10:39:36.514Z,20.09
2022-09-12T10:40:39.434Z,19.84
2022-09-12T10:41:40.831Z,19.91
2022-09-12T10:42:55.764Z,20.16
2022-09-12T10:43:52.902Z,19.98
2022-09-12T10:44:54.620Z,20.25
2022-09-12T10:45:51.372Z,20.20
2022-09-12T10:46:48.315Z,20.29
2022-09-12T10:47:46.546Z,20.39
2022-09-12T10:48:46.030Z,19.95
2022-09-12T10:49:42.677Z,20.21
2022-09-12T10:50:42.017Z,20.15
2022-09-12T10:51:38.769Z,20.20
2022-09-12T10:52:35.463Z,20.11
2022-09-12T10:53:41.191Z,20.10
2022-09-12T10:54:38.004Z,20.14
2022-09-12T10:55:35.894Z,20.21
2022-09-12T10:56:38.689Z,20.16
2022-09-12T10:57:59.764Z,19.49
2022-09-12T10:59:34.364Z,20.18
2022-09-12T11:00:40.869Z,19.88
2022-09-12T11:01:55.958Z,19.86
2022-09-12T11:03:36.019Z,19.78
2022-09-12T11:04:41.917Z,20.14
2022-09-12T11:05:50.666Z,20.31
2022-09-12T11:06:50.231Z,20.50
2022-09-12T11:08:08.608Z,20.28
2022-09-12T11:09:46.641Z,20.11
2022-09-12T11:11:04.898Z,20.21
2022-09-12T11:12:23.342Z,20.42
2022-09-12T11:13:38.741Z,20.43
2022-09-12T11:14:45.016Z,20.54
2022-09-12T11:16:04.341Z,20.02
2022-09-12T11:17:14.363Z,20.62
2022-09-12T11:18:32.786Z,20.46
2022-09-12T11:20:10.019Z,20.26
2022-09-12T11:21:15.959Z,20.57
2022-09-12T11:22:23.790Z,20.65
2022-09-12T11:23:38.263Z,20.29
2022-09-12T11:24:42.241Z,20.58
2022-09-12T11:26:24.198Z,20.52
2022-09-12T11:27:35.568Z,20.56
2022-09-12T11:28:53.944Z,20.24
2022-09-12T11:29:57.762Z,20.21
2022-09-12T11:31:08.523Z,20.10
2022-09-12T11:32:14.226Z,20.15
2022-09-12T11:33:42.788Z,20.09
2022-09-12T11:35:07.934Z,19.95
2022-09-12T11:36:33.178Z,19.92
2022-09-12T11:38:00.373Z,19.67
2022-09-12T11:39:16.186Z,19.95
2022-09-12T11:40:20.162Z,20.29
2022-09-12T11:41:31.557Z,20.04
2022-09-12T11:42:38.922Z,20.14
2022-09-12T11:43:43.873Z,20.16
2022-09-12T11:45:01.209Z,20.14
2022-09-12T11:46:14.276Z,19.63
2022-09-12T11:47:13.587Z,20.04
2022-09-12T11:48:49.309Z,20.10
2022-09-12T11:49:48.577Z,20.16
2022-09-12T11:50:45.304Z,20.11
2022-09-12T11:51:58.048Z,19.96
2022-09-12T11:53:25.294Z,19.82
2022-09-12T11:55:12.065Z,19.91
2022-09-12T11:56:18.585Z,19.61
2022-09-12T11:57:52.778Z,19.96
2022-09-12T11:58:59.898Z,20.05
2022-09-12T12:00:07.774Z,20.08
2022-09-12T12:01:26.105Z,20.08
2022-09-12T12:02:29.438Z,19.62
2022-09-12T12:03:44.889Z,19.97
2022-09-12T12:05:12.490Z,19.72
2022-09-12T12:06:37.333Z,19.75
2022-09-12T12:07:45.553Z,19.83
2022-09-12T12:08:46.117Z,19.00
2022-09-12T12:09:50.434Z,19.57
2022-09-12T12:10:57.568Z,19.16
2022-09-12T12:11:57.951Z,19.47
2022-09-12T12:12:58.229Z,19.13
2022-09-12T12:14:01.492Z,19.28
2022-09-12T12:14:59.782Z,19.59
2022-09-12T12:16:08.553Z,19.52
2022-09-12T12:17:23.360Z,19.74
2022-09-12T12:18:26.667Z,19.38
2022-09-12T12:19:36.576Z,19.75
2022-09-12T12:20:34.924Z,19.55
2022-09-12T12:21:35.530Z,19.64
2022-09-12T12:22:32.390Z,19.39
2022-09-12T12:23:35.454Z,19.97
2022-09-12T12:24:33.944Z,19.58
2022-09-12T12:25:51.777Z,19.52
2022-09-12T12:27:22.545Z,19.84
2022-09-12T12:28:42.428Z,19.88
2022-09-12T12:29:43.887Z,20.07
2022-09-12T12:30:41.005Z,20.12
2022-09-12T12:31:59.194Z,20.01
2022-09-12T12:33:03.082Z,19.78
2022-09-12T12:34:24.469Z,20.00
2022-09-12T12:35:43.234Z,20.05
2022-09-12T12:36:42.014Z,19.86
2022-09-12T12:37:52.222Z,19.97
2022-09-12T12:38:49.058Z,19.87
2022-09-12T12:39:49.299Z,20.28
2022-09-12T12:40:46.128Z,20.37
2022-09-12T12:41:44.886Z,20.55
2022-09-12T12:42:41.594Z,20.48
2022-09-12T12:43:38.731Z,20.48
2022-09-12T12:44:49.492Z,20.55
2022-09-12T12:45:48.921Z,20.66
2022-09-12T12:47:14.578Z,20.48
2022-09-12T12:48:20.468Z,20.28
2022-09-12T12:49:29.527Z,20.19
2022-09-12T12:50:29.571Z,20.13
2022-09-12T12:51:54.750Z,19.95
2022-09-12T12:52:56.566Z,19.92
2022-09-12T12:53:55.248Z,19.15
2022-09-12T12:54:58.868Z,19.51
2022-09-12T12:55:57.146Z,19.33
2022-09-12T12:57:18.680Z,19.72
2022-09-12T12:58:40.517Z,19.37
2022-09-12T12:59:37.381Z,19.04
2022-09-12T13:00:40.424Z,19.31
2022-09-12T13:01:41.194Z,19.38
2022-09-12T13:02:52.741Z,18.91
2022-09-12T13:04:12.626Z,19.14
2022-09-12T13:05:25.180Z,18.82
2022-09-12T13:06:39.409Z,18.84
2022-09-12T13:07:40.149Z,19.29
2022-09-12T13:08:43.662Z,19.32
2022-09-12T13:09:45.423Z,19.25
2022-09-12T13:10:51.833Z,19.18
2022-09-12T13:11:59.849Z,19.31
2022-09-12T13:13:05.232Z,19.33
2022-09-12T13:14:27.251Z,19.40
2022-09-12T13:15:36.378Z,19.59
2022-09-12T13:16:39.360Z,19.26
2022-09-12T13:17:46.870Z,19.67
2022-09-12T13:18:49.009Z,19.78
2022-09-12T13:19:48.578Z,19.77
2022-09-12T13:20:53.377Z,19.56
2022-09-12T13:21:57.482Z,18.54
2022-09-12T13:22:54.255Z,19.63
2022-09-12T13:24:12.883Z,18.85
2022-09-12T13:25:20.710Z,19.27
2022-09-12T13:26:28.544Z,19.23
2022-09-12T13:27:25.833Z,19.19
2022-09-12T13:28:23.655Z,19.30
2022-09-12T13:29:26.726Z,19.51
2022-09-12T13:30:23.580Z,19.45
2022-09-12T13:31:20.289Z,19.43